Time;durP1;ratioP1;P1;durP2;ratioP2;P2;SDS_P1;SDS_P2;PMS_P1;PMS_P2;Temp;Humidity;BMP_temperature;BMP_pressure;BME280_temperature;BME280_humidity;BME280_pressure;Samples;Min_cycle;Max_cycle;Signal;HPM_P1;HPM_P2
2023/03/01 00:01:18;;;;;;;19.58;11.00;;;;;;;16.20;46.41;103344.22;5028870;28;20059;-35
2023/03/01 00:03:45;;;;;;;21.30;11.35;;;;;;;16.19;46.71;103346.03;5028073;28;20461;-37
2023/03/01 00:06:11;;;;;;;20.33;11.13;;;;;;;16.17;47.01;103339.91;5024479;28;20038;-35
2023/03/01 00:08:38;;;;;;;19.48;10.50;;;;;;;16.16;47.03;103343.53;5022644;28;20050;-36
2023/03/01 00:11:11;;;;;;;21.23;11.20;;;;;;;16.16;46.65;103348.91;5022255;28;20072;-35
2023/03/01 00:13:39;;;;;;;17.73;10.38;;;;;;;16.14;46.63;103339.19;5023239;28;20046;-36
2023/03/01 00:16:12;;;;;;;17.85;10.43;;;;;;;16.12;47.01;103339.28;5021953;28;20057;-35
2023/03/01 00:18:39;;;;;;;17.45;10.55;;;;;;;16.13;47.17;103337.47;5024592;28;20060;-35
2023/03/01 00:21:06;;;;;;;17.38;10.15;;;;;;;16.11;46.66;103336.69;5024559;28;20049;-36
2023/03/01 00:23:37;;;;;;;15.95;9.25;;;;;;;16.10;47.05;103332.28;5024824;28;20049;-36
2023/03/01 00:26:09;;;;;;;18.15;10.30;;;;;;;16.08;47.15;103332.38;5020312;28;20037;-35
2023/03/01 00:28:36;;;;;;;19.02;10.68;;;;;;;16.07;46.86;103330.63;5017513;28;20054;-36
2023/03/01 00:31:11;;;;;;;17.73;10.10;;;;;;;16.06;47.13;103328.03;5027625;28;20085;-35
2023/03/01 00:33:38;;;;;;;15.70;9.18;;;;;;;16.05;46.25;103329.84;5027374;28;20062;-35
2023/03/01 00:36:05;;;;;;;18.52;10.38;;;;;;;16.02;46.49;103328.19;5025914;28;20052;-35
2023/03/01 00:38:36;;;;;;;17.55;9.45;;;;;;;16.02;46.23;103319.31;5023558;28;20056;-36
2023/03/01 00:41:07;;;;;;;15.50;9.48;;;;;;;15.99;46.08;103317.63;5025520;28;20049;-36
2023/03/01 00:43:36;;;;;;;16.08;9.15;;;;;;;15.98;46.90;103317.72;5021338;28;20041;-35
2023/03/01 00:46:13;;;;;;;17.05;10.10;;;;;;;15.96;46.61;103322.28;5023535;28;20093;-36
2023/03/01 00:48:40;;;;;;;16.70;9.55;;;;;;;15.96;46.96;103324.94;5023454;28;20390;-35
2023/03/01 00:51:07;;;;;;;15.60;9.27;;;;;;;15.94;47.17;103319.69;5027061;28;20054;-35
2023/03/01 00:53:35;;;;;;;14.95;8.85;;;;;;;15.93;46.45;103323.31;5022456;28;20038;-36
2023/03/01 00:56:03;;;;;;;15.18;9.02;;;;;;;15.92;47.19;103320.72;5023847;28;20041;-37
2023/03/01 00:58:30;;;;;;;16.15;9.48;;;;;;;15.90;46.49;103320.81;5020450;28;20052;-36
2023/03/01 01:00:56;;;;;;;14.65;7.97;;;;;;;15.90;47.01;103318.13;5023024;28;20049;-35
2023/03/01 01:03:24;;;;;;;13.65;8.35;;;;;;;15.89;46.59;103323.56;5025245;28;20064;-36
2023/03/01 01:05:54;;;;;;;14.15;8.20;;;;;;;15.88;46.21;103319.13;5023331;28;20646;-36
2023/03/01 01:08:20;;;;;;;14.48;8.45;;;;;;;15.86;46.32;103313.88;5025527;28;20041;-35
2023/03/01 01:10:47;;;;;;;14.52;8.52;;;;;;;15.85;47.37;103319.31;5025211;28;20136;-36
2023/03/01 01:13:14;;;;;;;14.15;8.20;;;;;;;15.84;46.63;103314.88;5027142;28;20330;-37
2023/03/01 01:15:41;;;;;;;11.88;7.53;;;;;;;15.82;47.37;103316.78;5026552;28;20327;-35
2023/03/01 01:18:08;;;;;;;14.13;7.82;;;;;;;15.82;47.07;103308.78;5029525;28;20084;-36
2023/03/01 01:20:35;;;;;;;12.18;7.72;;;;;;;15.81;46.63;103309.72;5024232;28;20521;-37
2023/03/01 01:23:02;;;;;;;12.95;7.55;;;;;;;15.79;46.46;103313.31;5043182;28;20084;-37
2023/03/01 01:25:28;;;;;;;12.13;7.80;;;;;;;15.79;46.49;103296.41;5028107;28;20045;-35
2023/03/01 01:27:55;;;;;;;15.63;7.85;;;;;;;15.77;47.06;103293.84;5025106;28;20072;-35
2023/03/01 01:30:21;;;;;;;12.80;7.78;;;;;;;15.77;47.25;103288.47;5027290;28;20079;-35
2023/03/01 01:32:48;;;;;;;13.27;8.27;;;;;;;15.76;47.30;103286.75;5028564;28;20046;-36
2023/03/01 01:35:14;;;;;;;13.48;7.63;;;;;;;15.75;47.16;103278.81;5027064;28;20041;-35
2023/03/01 01:37:41;;;;;;;14.07;7.97;;;;;;;15.75;46.85;103285.00;5026007;28;20054;-36
2023/03/01 01:40:09;;;;;;;12.07;7.35;;;;;;;15.73;47.48;103280.69;5027262;28;20075;-36
2023/03/01 01:42:36;;;;;;;11.32;7.15;;;;;;;15.73;46.99;103276.22;5026086;28;20054;-35
2023/03/01 01:45:40;;;;;;;12.80;7.30;;;;;;;15.70;46.51;103272.84;5026178;28;20075;-36
2023/03/01 01:48:16;;;;;;;13.18;6.95;;;;;;;15.71;47.02;103266.53;5025573;28;20060;-35
2023/03/01 01:50:44;;;;;;;11.60;6.57;;;;;;;15.71;46.58;103266.53;5026627;28;20069;-36
2023/03/01 01:53:15;;;;;;;11.93;6.70;;;;;;;15.70;47.18;103267.50;5026666;28;20433;-35
2023/03/01 01:55:50;;;;;;;11.35;6.80;;;;;;;15.68;47.01;103272.94;5030085;28;20431;-36
2023/03/01 01:58:20;;;;;;;10.07;6.60;;;;;;;15.67;46.46;103268.50;5026185;28;20565;-36
2023/03/01 02:00:48;;;;;;;12.40;6.78;;;;;;;15.66;46.79;103272.13;5025542;28;20060;-36
2023/03/01 02:03:18;;;;;;;10.57;6.03;;;;;;;15.65;47.28;103266.88;5026178;28;20052;-35
2023/03/01 02:05:55;;;;;;;10.48;6.18;;;;;;;15.62;47.04;103265.16;5027718;28;20045;-35
2023/03/01 02:08:25;;;;;;;10.73;6.57;;;;;;;15.62;47.52;103261.63;5026680;28;20045;-35
2023/03/01 02:10:54;;;;;;;11.18;6.15;;;;;;;15.61;46.59;103258.09;5027705;28;20064;-35
2023/03/01 02:13:20;;;;;;;10.10;5.97;;;;;;;15.59;47.57;103254.63;5024701;28;20065;-35
2023/03/01 02:15:47;;;;;;;11.55;6.53;;;;;;;15.59;46.81;103259.97;5024554;28;20052;-36
2023/03/01 02:18:18;;;;;;;8.65;5.55;;;;;;;15.58;46.54;103257.38;5025990;28;20108;-35
2023/03/01 02:21:05;;;;;;;10.50;6.03;;;;;;;15.56;47.11;103254.81;5020828;28;20042;-36
2023/03/01 02:23:33;;;;;;;10.63;6.47;;;;;;;15.57;47.26;103255.66;5030197;28;20472;-35
2023/03/01 02:26:05;;;;;;;10.50;6.35;;;;;;;15.54;46.82;103262.88;5030390;28;20041;-38
2023/03/01 02:28:35;;;;;;;8.98;5.43;;;;;;;15.53;46.80;103257.63;5027754;28;20041;-36
2023/03/01 02:33:51;;;;;;;10.20;5.95;;;;;;;15.52;47.14;103253.22;5024582;28;20132;-35
2023/03/01 02:36:21;;;;;;;8.65;5.53;;;;;;;15.51;47.21;103255.00;5028853;28;20045;-37
2023/03/01 02:38:51;;;;;;;8.23;5.10;;;;;;;15.50;47.07;103258.63;5024211;28;20056;-35
2023/03/01 02:41:20;;;;;;;8.75;5.50;;;;;;;15.48;47.66;103247.19;5027861;28;20469;-35
2023/03/01 02:43:47;;;;;;;8.80;5.28;;;;;;;15.49;46.56;103253.38;5026618;28;20053;-36
2023/03/01 02:46:19;;;;;;;10.07;5.68;;;;;;;15.48;46.99;103240.97;5026380;28;20065;-36
2023/03/01 02:48:49;;;;;;;8.40;4.82;;;;;;;15.47;47.58;103236.53;5025548;28;20057;-35
2023/03/01 02:51:41;;;;;;;9.82;5.50;;;;;;;15.46;47.49;103227.66;5026021;28;20434;-34
2023/03/01 02:54:21;;;;;;;9.13;5.20;;;;;;;15.45;47.74;103228.63;5024317;28;20045;-35
2023/03/01 02:56:48;;;;;;;8.23;5.00;;;;;;;15.46;46.50;103227.66;5029075;28;20044;-35
2023/03/01 02:59:17;;;;;;;8.18;4.93;;;;;;;15.45;47.56;103223.28;5023148;28;20192;-35
2023/03/01 03:01:44;;;;;;;10.20;4.88;;;;;;;15.44;46.74;103221.56;5025013;28;20046;-34
2023/03/01 03:04:18;;;;;;;9.27;5.25;;;;;;;15.42;46.82;103220.75;5024723;28;20049;-34
2023/03/01 03:06:46;;;;;;;8.38;4.78;;;;;;;15.44;46.95;103226.03;5028392;28;20042;-35
2023/03/01 03:09:14;;;;;;;8.10;5.22;;;;;;;15.42;47.40;103223.41;5027720;28;20061;-35
2023/03/01 03:11:42;;;;;;;8.02;4.68;;;;;;;15.42;47.51;103227.91;5024148;28;20056;-35
2023/03/01 03:14:12;;;;;;;7.07;4.68;;;;;;;15.39;46.87;103218.22;5025389;28;20053;-35
2023/03/01 03:16:47;;;;;;;9.02;5.20;;;;;;;15.39;47.86;103223.56;5024367;28;20091;-34
2023/03/01 03:19:14;;;;;;;7.57;4.63;;;;;;;15.39;47.61;103217.38;5022342;28;20085;-34
2023/03/01 03:21:40;;;;;;;9.63;4.85;;;;;;;15.38;46.75;103221.00;5022487;28;20346;-35
2023/03/01 03:24:07;;;;;;;6.50;4.22;;;;;;;15.36;46.98;103218.41;5022521;28;20053;-34
2023/03/01 03:26:34;;;;;;;7.97;4.70;;;;;;;15.36;47.67;103221.09;5024036;28;20052;-35
2023/03/01 03:29:00;;;;;;;6.80;4.18;;;;;;;15.36;47.76;103217.53;5025824;28;20049;-34
2023/03/01 03:31:27;;;;;;;6.97;4.30;;;;;;;15.35;46.76;103221.13;5023505;28;20532;-35
2023/03/01 03:33:54;;;;;;;6.97;4.18;;;;;;;15.33;46.73;103209.69;5026191;28;20053;-36
2023/03/01 03:36:24;;;;;;;6.60;4.13;;;;;;;15.31;46.67;103202.59;5024615;28;20049;-35
2023/03/01 03:38:50;;;;;;;8.43;4.68;;;;;;;15.31;46.68;103202.59;5028731;28;20349;-35
2023/03/01 03:41:17;;;;;;;7.82;4.38;;;;;;;15.30;46.78;103198.19;5027189;28;20049;-35
2023/03/01 03:43:43;;;;;;;7.10;4.60;;;;;;;15.29;47.33;103195.59;5024093;28;20344;-34
2023/03/01 03:46:11;;;;;;;7.75;4.25;;;;;;;15.27;47.48;103198.34;5024451;28;20061;-35
2023/03/01 03:48:45;;;;;;;7.30;4.60;;;;;;;15.27;47.42;103192.13;5025401;28;20100;-34
2023/03/01 03:51:16;;;;;;;7.53;4.43;;;;;;;15.26;46.85;103187.75;5023785;28;20816;-35
2023/03/01 03:53:44;;;;;;;7.13;4.32;;;;;;;15.25;47.24;103191.38;5025518;28;20348;-34
2023/03/01 03:56:11;;;;;;;7.97;4.95;;;;;;;15.24;47.74;103190.50;5022921;28;20056;-34
2023/03/01 03:58:38;;;;;;;6.32;3.67;;;;;;;15.24;47.15;103192.31;5020271;28;20053;-34
2023/03/01 04:01:04;;;;;;;4.43;3.25;;;;;;;15.23;47.62;103199.44;5023504;28;20060;-35
2023/03/01 04:03:32;;;;;;;5.90;3.72;;;;;;;15.23;47.60;103199.44;5023936;28;20057;-35
2023/03/01 04:06:00;;;;;;;5.22;3.53;;;;;;;15.22;46.74;103191.50;5022357;28;20060;-35
2023/03/01 04:08:28;;;;;;;6.53;4.00;;;;;;;15.22;46.69;103191.50;5018553;28;20045;-35
2023/03/01 04:11:25;;;;;;;8.23;4.18;;;;;;;15.21;47.79;103193.31;5023539;28;20050;-34
2023/03/01 04:13:48;;;;;;;5.93;3.83;;;;;;;15.22;46.85;103194.19;5023652;28;20045;-36
2023/03/01 04:16:14;;;;;;;6.95;4.13;;;;;;;15.22;47.50;103194.19;5022024;28;20133;-35
2023/03/01 04:18:41;;;;;;;5.57;3.53;;;;;;;15.20;46.89;103196.94;5021588;28;20050;-34
2023/03/01 04:21:08;;;;;;;6.32;3.80;;;;;;;15.20;47.33;103198.75;5028231;28;20074;-35
2023/03/01 04:23:35;;;;;;;5.93;3.67;;;;;;;15.20;47.55;103191.59;5021527;28;20076;-34
2023/03/01 04:26:01;;;;;;;7.18;3.75;;;;;;;15.19;47.85;103192.53;5023390;28;20634;-34
2023/03/01 04:28:37;;;;;;;6.05;3.63;;;;;;;15.18;47.04;103192.59;5023940;28;20057;-34
2023/03/01 04:31:15;;;;;;;6.22;3.45;;;;;;;15.17;47.46;103196.22;5025415;28;20052;-34
2023/03/01 04:33:47;;;;;;;5.82;3.72;;;;;;;15.16;47.17;103184.69;5021943;28;20453;-35
2023/03/01 04:36:16;;;;;;;6.45;3.97;;;;;;;15.16;47.26;103184.69;5022433;28;20085;-36
2023/03/01 04:38:47;;;;;;;5.28;3.35;;;;;;;15.14;47.40;103191.03;5020392;28;20053;-36
2023/03/01 04:41:16;;;;;;;4.47;3.40;;;;;;;15.12;47.79;103193.78;5021554;28;20060;-36
2023/03/01 04:43:42;;;;;;;6.07;4.10;;;;;;;15.12;46.72;103182.25;5026890;28;20060;-36
2023/03/01 04:46:12;;;;;;;6.28;3.75;;;;;;;15.10;46.85;103187.66;5029244;28;20425;-37
2023/03/01 04:48:42;;;;;;;4.15;2.92;;;;;;;15.10;47.75;103181.44;5026878;28;20349;-36
2023/03/01 04:51:09;;;;;;;4.55;3.05;;;;;;;15.10;47.21;103181.44;5030174;28;20080;-36
2023/03/01 04:53:38;;;;;;;5.18;3.15;;;;;;;15.09;47.41;103179.72;5029996;28;20132;-36
2023/03/01 04:56:05;;;;;;;4.93;2.75;;;;;;;15.07;47.82;103174.44;5030314;28;20448;-38
2023/03/01 04:58:32;;;;;;;5.35;3.10;;;;;;;15.07;47.43;103174.44;5028330;28;20059;-36
2023/03/01 05:00:59;;;;;;;5.18;3.10;;;;;;;15.06;47.45;103164.72;5027994;28;20064;-36
2023/03/01 05:03:25;;;;;;;5.00;3.25;;;;;;;15.04;46.90;103170.13;5030895;28;20053;-36
2023/03/01 05:05:52;;;;;;;4.93;3.28;;;;;;;15.03;47.17;103163.06;5031260;28;20045;-35
2023/03/01 05:08:20;;;;;;;4.35;2.72;;;;;;;15.03;47.23;103157.72;5031533;28;20480;-35
2023/03/01 05:10:52;;;;;;;4.40;3.17;;;;;;;15.00;47.38;103157.88;5029042;28;20049;-35
2023/03/01 05:13:23;;;;;;;4.78;3.22;;;;;;;15.01;47.10;103164.09;5032023;28;20357;-35
2023/03/01 05:16:01;;;;;;;5.80;3.38;;;;;;;14.97;46.71;103166.03;5027577;28;20053;-36
2023/03/01 05:18:30;;;;;;;5.03;2.90;;;;;;;14.96;47.49;103158.97;5029747;28;20103;-35
2023/03/01 05:21:03;;;;;;;4.88;3.13;;;;;;;14.95;47.00;103153.69;5027914;28;20049;-35
2023/03/01 05:23:31;;;;;;;4.80;2.55;;;;;;;14.95;46.96;103153.69;5028945;28;20053;-36
2023/03/01 05:25:59;;;;;;;4.38;2.90;;;;;;;14.93;46.71;103148.44;5026184;28;20045;-35
2023/03/01 05:28:27;;;;;;;5.60;3.20;;;;;;;14.93;46.76;103139.56;5028729;28;20057;-35
2023/03/01 05:30:54;;;;;;;4.68;3.00;;;;;;;14.94;46.82;103141.28;5029791;28;20049;-37
2023/03/01 05:33:21;;;;;;;6.30;3.17;;;;;;;14.93;47.34;103134.22;5031958;28;20046;-35
2023/03/01 05:35:50;;;;;;;5.85;3.70;;;;;;;14.92;46.60;103135.19;5029424;28;20072;-35
2023/03/01 05:38:17;;;;;;;5.13;3.03;;;;;;;14.92;47.29;103125.38;5027200;28;20053;-35
2023/03/01 05:40:46;;;;;;;5.55;3.15;;;;;;;14.92;46.42;103122.69;5029323;28;20337;-36
2023/03/01 05:43:14;;;;;;;5.53;3.20;;;;;;;14.92;46.96;103132.50;5029572;28;20085;-35
2023/03/01 05:45:42;;;;;;;5.00;3.10;;;;;;;14.93;47.37;103118.22;5031541;28;20053;-35
2023/03/01 05:48:10;;;;;;;4.90;3.10;;;;;;;14.91;46.58;103118.25;5027544;28;20046;-35
2023/03/01 05:50:43;;;;;;;5.05;2.90;;;;;;;14.91;47.49;103114.75;5031248;28;20054;-35
2023/03/01 05:53:16;;;;;;;4.67;3.10;;;;;;;14.90;46.87;103119.22;5025916;28;20045;-35
2023/03/01 05:55:44;;;;;;;4.30;2.70;;;;;;;14.90;46.46;103113.00;5023284;28;20053;-35
2023/03/01 05:58:13;;;;;;;5.00;3.30;;;;;;;14.89;46.55;103116.63;5027182;28;20103;-35
2023/03/01 06:00:41;;;;;;;5.38;3.08;;;;;;;14.88;46.72;103110.44;5028236;28;20088;-35
2023/03/01 06:03:10;;;;;;;4.85;2.88;;;;;;;14.89;46.35;103111.28;5025870;28;20056;-35
2023/03/01 06:05:37;;;;;;;4.93;3.10;;;;;;;14.88;46.62;103114.91;5020548;28;20073;-35
2023/03/01 06:08:03;;;;;;;4.97;3.25;;;;;;;14.86;46.44;103112.31;5026906;28;20114;-35
2023/03/01 06:10:30;;;;;;;5.47;3.20;;;;;;;14.85;47.46;103112.41;5026960;28;20148;-35
2023/03/01 06:12:57;;;;;;;4.88;3.00;;;;;;;14.85;47.49;103115.06;5025829;28;20429;-35
2023/03/01 06:15:24;;;;;;;5.53;3.25;;;;;;;14.82;47.48;103116.06;5021325;28;20042;-35
2023/03/01 06:17:54;;;;;;;5.80;3.22;;;;;;;14.81;46.73;103115.22;5026696;28;20049;-35
2023/03/01 06:20:25;;;;;;;5.63;3.13;;;;;;;14.81;46.91;103115.22;5024215;28;20068;-35
2023/03/01 06:22:52;;;;;;;4.78;3.03;;;;;;;14.80;47.38;103118.81;5027846;28;20042;-35
2023/03/01 06:25:21;;;;;;;3.95;2.67;;;;;;;14.80;46.93;103112.63;5025267;28;20050;-35
2023/03/01 06:27:49;;;;;;;4.03;2.95;;;;;;;14.79;46.88;103122.44;5027053;28;20060;-35
2023/03/01 06:30:17;;;;;;;4.38;3.15;;;;;;;14.80;46.61;103123.31;5022783;28;20438;-35
2023/03/01 06:32:44;;;;;;;4.63;3.10;;;;;;;14.79;46.82;103122.44;5026651;28;20053;-35
2023/03/01 06:35:13;;;;;;;3.95;3.00;;;;;;;14.77;47.62;103121.66;5023753;28;20433;-34
2023/03/01 06:37:40;;;;;;;4.05;3.17;;;;;;;14.77;47.28;103129.66;5026980;28;20496;-35
2023/03/01 06:40:08;;;;;;;5.07;3.08;;;;;;;14.78;47.25;103130.50;5025251;28;20068;-35
2023/03/01 06:42:35;;;;;;;3.83;2.88;;;;;;;14.76;46.88;103130.59;5028596;28;20049;-35
2023/03/01 06:45:04;;;;;;;6.38;3.65;;;;;;;14.77;46.47;103128.78;5026946;28;20069;-34
2023/03/01 06:47:30;;;;;;;4.90;3.25;;;;;;;14.77;47.45;103131.47;5025937;28;20050;-35
2023/03/01 06:49:57;;;;;;;5.30;3.30;;;;;;;14.76;46.98;103127.06;5024670;28;20049;-35
2023/03/01 06:52:23;;;;;;;6.65;3.65;;;;;;;14.75;46.60;103126.22;5029351;28;20522;-34
2023/03/01 06:54:50;;;;;;;4.28;3.17;;;;;;;14.75;46.81;103120.88;5021476;28;20574;-35
2023/03/01 06:57:17;;;;;;;5.57;3.38;;;;;;;14.75;47.16;103123.53;5024764;28;20045;-34
2023/03/01 06:59:43;;;;;;;3.85;2.50;;;;;;;14.77;46.65;103126.13;5026626;28;20472;-35
2023/03/01 07:02:14;;;;;;;5.78;3.55;;;;;;;14.77;47.46;103121.66;5025822;28;20215;-34
2023/03/01 07:04:41;;;;;;;7.15;3.55;;;;;;;14.77;46.51;103115.44;5025706;28;20350;-35
2023/03/01 07:07:08;;;;;;;4.25;2.92;;;;;;;14.78;47.43;103119.84;5022582;28;20049;-34
2023/03/01 07:09:35;;;;;;;5.30;3.20;;;;;;;14.77;47.58;103118.97;5024929;28;20049;-35
2023/03/01 07:12:02;;;;;;;4.72;3.00;;;;;;;14.79;47.42;103121.56;5023091;28;20378;-35
2023/03/01 07:14:29;;;;;;;5.55;3.55;;;;;;;14.80;46.57;103120.63;5028341;28;20725;-35
2023/03/01 07:16:55;;;;;;;6.07;2.97;;;;;;;14.80;47.08;103118.81;5028393;28;20049;-36
2023/03/01 07:19:22;;;;;;;5.28;3.28;;;;;;;14.80;46.62;103121.50;5027788;28;20076;-36
2023/03/01 07:21:49;;;;;;;4.43;3.08;;;;;;;14.81;47.48;103127.69;5025128;28;20529;-35
2023/03/01 07:24:15;;;;;;;6.00;3.13;;;;;;;14.82;47.43;103124.06;5026700;28;20053;-35
2023/03/01 07:26:42;;;;;;;4.70;3.10;;;;;;;14.82;47.05;103127.59;5017992;28;20045;-34
2023/03/01 07:29:10;;;;;;;5.68;3.40;;;;;;;14.84;46.74;103129.34;5021612;28;20049;-34
2023/03/01 07:31:37;;;;;;;3.65;2.78;;;;;;;14.84;46.78;103129.34;5020093;28;20353;-35
2023/03/01 07:34:03;;;;;;;5.60;3.65;;;;;;;14.84;47.41;103135.56;5024935;28;20042;-34
2023/03/01 07:36:30;;;;;;;4.00;2.97;;;;;;;14.85;47.26;103125.75;5022768;28;20050;-36
2023/03/01 07:38:57;;;;;;;4.50;2.85;;;;;;;14.85;46.64;103133.75;5023942;28;20180;-35
2023/03/01 07:41:24;;;;;;;5.10;2.92;;;;;;;14.86;47.46;103139.00;5020694;28;20045;-35
2023/03/01 07:43:50;;;;;;;4.85;3.13;;;;;;;14.86;47.56;103132.81;5023493;28;20852;-35
2023/03/01 07:46:18;;;;;;;4.68;3.20;;;;;;;14.86;47.11;103139.00;5024787;28;20384;-35
2023/03/01 07:48:45;;;;;;;4.70;3.05;;;;;;;14.86;46.89;103146.16;5027030;28;20388;-35
2023/03/01 07:51:12;;;;;;;4.80;3.15;;;;;;;14.86;47.02;103132.81;5021375;28;20054;-36
2023/03/01 07:53:38;;;;;;;5.65;3.33;;;;;;;14.87;47.00;103142.53;5024805;28;20060;-34
2023/03/01 07:56:12;;;;;;;4.18;2.97;;;;;;;14.86;47.64;103131.00;5022914;28;20115;-35
2023/03/01 07:58:40;;;;;;;;;;;;;;;14.87;47.74;103134.53;5025729;28;20072;-35
2023/03/01 08:01:10;;;;;;;4.35;2.80;;;;;;;14.93;47.50;103136.91;5024082;28;21072;-36
2023/03/01 08:03:37;;;;;;;5.20;3.22;;;;;;;14.91;47.30;103141.44;5022249;28;20124;-35
2023/03/01 08:06:08;;;;;;;3.92;2.83;;;;;;;14.90;47.24;103143.25;5026216;28;20340;-35
2023/03/01 08:08:35;;;;;;;4.05;2.88;;;;;;;14.92;47.74;103141.38;5024196;28;20133;-35
2023/03/01 08:11:04;;;;;;;4.55;2.65;;;;;;;14.93;46.76;103139.56;5025509;28;20044;-35
2023/03/01 08:13:31;;;;;;;4.32;2.80;;;;;;;14.94;47.11;103138.63;5021765;28;20335;-35
2023/03/01 08:16:07;;;;;;;4.07;2.97;;;;;;;14.95;47.79;103143.88;5023333;28;20175;-35
2023/03/01 08:18:34;;;;;;;5.72;2.83;;;;;;;14.98;47.29;103142.88;5019996;28;20049;-34
2023/03/01 08:21:12;;;;;;;3.47;2.35;;;;;;;15.00;47.99;103143.66;5021939;28;20135;-35
2023/03/01 08:23:40;;;;;;;4.38;2.80;;;;;;;15.05;46.71;103134.47;5023290;28;20060;-35
2023/03/01 08:26:16;;;;;;;5.40;2.88;;;;;;;15.09;46.93;103127.16;5023227;28;20072;-35
2023/03/01 08:28:43;;;;;;;4.53;3.45;;;;;;;15.15;47.32;103125.97;5023363;28;20057;-36
2023/03/01 08:31:21;;;;;;;4.03;2.80;;;;;;;15.20;47.17;103129.31;5023783;28;20425;-34
2023/03/01 08:33:54;;;;;;;5.13;3.33;;;;;;;15.24;48.01;103110.34;5025340;28;20054;-35
2023/03/01 08:36:29;;;;;;;4.70;3.00;;;;;;;15.29;48.03;103121.66;5028963;28;20057;-35
2023/03/01 08:38:56;;;;;;;4.55;2.90;;;;;;;15.35;47.28;103114.25;5022506;28;20048;-34
2023/03/01 08:41:24;;;;;;;4.95;2.75;;;;;;;15.39;47.50;103121.16;5023986;28;20101;-35
2023/03/01 08:43:50;;;;;;;4.20;2.85;;;;;;;15.43;46.59;103120.91;5021694;28;20057;-35
2023/03/01 08:46:17;;;;;;;5.45;2.90;;;;;;;15.47;46.62;103118.94;5017068;28;20088;-35
2023/03/01 08:48:44;;;;;;;4.47;2.83;;;;;;;15.51;46.55;103120.50;5022319;28;20046;-36
2023/03/01 08:51:17;;;;;;;3.75;2.70;;;;;;;15.56;46.34;103113.13;5021404;28;20084;-35
2023/03/01 08:53:44;;;;;;;7.38;3.15;;;;;;;15.60;46.59;103109.34;5021654;28;20049;-36
2023/03/01 08:56:11;;;;;;;4.00;2.90;;;;;;;15.63;46.41;103111.84;5023084;28;20419;-35
2023/03/01 08:58:39;;;;;;;4.28;2.80;;;;;;;15.69;46.04;103108.88;5025192;28;20129;-36
2023/03/01 09:01:17;;;;;;;4.40;2.78;;;;;;;15.74;46.63;103104.16;5021638;28;20065;-35
2023/03/01 09:03:44;;;;;;;5.32;2.75;;;;;;;15.79;46.29;103104.75;5022048;28;20536;-35
2023/03/01 09:06:12;;;;;;;4.18;2.80;;;;;;;15.84;45.86;103106.31;5023217;28;20132;-36
2023/03/01 09:08:43;;;;;;;5.00;2.80;;;;;;;15.88;45.95;103107.88;5022580;28;20053;-36
2023/03/01 09:11:15;;;;;;;4.97;2.38;;;;;;;15.92;46.45;103099.63;5021692;28;20050;-36
2023/03/01 09:13:41;;;;;;;3.53;2.75;;;;;;;15.98;45.50;103090.38;5020709;28;20467;-36
2023/03/01 09:16:11;;;;;;;3.72;2.70;;;;;;;16.02;45.99;103087.44;5022922;28;20087;-35
2023/03/01 09:18:38;;;;;;;4.15;2.78;;;;;;;16.07;46.27;103079.16;5021914;28;20041;-36
2023/03/01 09:21:07;;;;;;;3.30;2.20;;;;;;;16.13;46.12;103080.66;5024603;28;20055;-36
2023/03/01 09:23:42;;;;;;;4.35;2.63;;;;;;;16.17;46.13;103075.03;5022105;28;20085;-36
2023/03/01 09:26:10;;;;;;;4.28;2.60;;;;;;;16.23;45.71;103074.66;5023645;28;20050;-37
2023/03/01 09:28:38;;;;;;;3.30;2.30;;;;;;;16.27;45.31;103062.84;5016873;28;20421;-35
2023/03/01 09:31:05;;;;;;;3.60;2.45;;;;;;;16.33;45.46;103067.00;5023898;28;20064;-35
2023/03/01 09:33:32;;;;;;;3.80;2.55;;;;;;;16.40;45.30;103072.84;5023505;28;20050;-34
2023/03/01 09:36:04;;;;;;;3.55;2.47;;;;;;;16.44;46.00;103067.25;5026702;28;20053;-35
2023/03/01 09:38:31;;;;;;;3.30;2.13;;;;;;;16.49;45.91;103065.16;5024833;28;20095;-35
2023/03/01 09:41:00;;;;;;;3.13;2.33;;;;;;;16.56;45.33;103064.78;5027495;28;20524;-35
2023/03/01 09:43:31;;;;;;;3.25;1.92;;;;;;;16.63;45.14;103063.47;5027040;28;20341;-43
2023/03/01 09:46:06;;;;;;;2.25;1.85;;;;;;;16.69;45.78;103060.44;5026453;28;20045;-35
2023/03/01 09:48:48;;;;;;;2.90;1.98;;;;;;;16.76;45.41;103067.19;5028751;28;20048;-36
2023/03/01 09:51:29;;;;;;;2.85;1.73;;;;;;;16.84;45.21;103072.06;5029193;28;20057;-35
2023/03/01 09:53:58;;;;;;;2.45;2.05;;;;;;;16.92;45.52;103064.44;5024686;28;20041;-35
2023/03/01 09:56:33;;;;;;;2.55;1.98;;;;;;;16.99;45.37;103074.69;5023379;28;20089;-34
2023/03/01 09:59:27;;;;;;;4.00;2.10;;;;;;;17.07;45.63;103074.25;5029799;28;20042;-35
2023/03/01 10:02:13;;;;;;;2.50;1.95;;;;;;;17.14;45.73;103067.56;5024904;28;20061;-34
2023/03/01 10:04:46;;;;;;;2.28;1.77;;;;;;;17.22;45.27;103064.41;5018714;28;20045;-35
2023/03/01 10:07:44;;;;;;;2.33;2.03;;;;;;;17.31;45.83;103065.66;5022207;28;20057;-35
2023/03/01 10:10:23;;;;;;;8.13;2.25;;;;;;;17.37;44.97;103055.44;5023490;28;20257;-35
2023/03/01 10:12:51;;;;;;;3.05;2.38;;;;;;;17.46;44.97;103054.00;5024838;28;20053;-35
2023/03/01 10:15:30;;;;;;;2.70;1.90;;;;;;;17.51;45.08;103051.88;5022261;28;20053;-35
2023/03/01 10:18:03;;;;;;;3.13;1.80;;;;;;;17.58;44.59;103050.53;5027453;28;20573;-35
2023/03/01 10:20:45;;;;;;;2.70;1.87;;;;;;;17.65;44.77;103045.66;5025133;28;20068;-35
2023/03/01 10:23:12;;;;;;;3.65;2.42;;;;;;;17.70;44.70;103052.44;5022474;28;20050;-35
2023/03/01 10:25:38;;;;;;;3.97;2.30;;;;;;;17.77;44.88;103044.91;5026636;28;20053;-35
2023/03/01 10:28:22;;;;;;;3.22;2.15;;;;;;;17.84;44.88;103042.69;5027175;28;20077;-35
2023/03/01 10:30:49;;;;;;;3.78;2.03;;;;;;;17.88;44.51;103031.66;5020937;28;20061;-35
2023/03/01 10:33:21;;;;;;;3.22;2.03;;;;;;;17.94;44.50;103038.47;5019981;28;20079;-36
2023/03/01 10:35:48;;;;;;;2.80;1.55;;;;;;;17.98;44.38;103040.84;5026618;28;20056;-35
2023/03/01 10:38:17;;;;;;;4.43;1.92;;;;;;;18.04;44.56;103033.34;5025532;28;20045;-35
2023/03/01 10:40:51;;;;;;;2.47;1.70;;;;;;;18.08;44.47;103041.09;5022687;28;20049;-35
2023/03/01 10:43:18;;;;;;;3.08;1.77;;;;;;;18.13;44.50;103033.63;5022408;28;20491;-36
2023/03/01 10:45:45;;;;;;;2.67;1.88;;;;;;;18.17;44.05;103037.81;5024842;28;20048;-35
2023/03/01 10:48:24;;;;;;;4.43;1.52;;;;;;;18.20;43.82;103029.53;5020843;28;20050;-35
2023/03/01 10:51:06;;;;;;;3.38;1.75;;;;;;;18.23;44.18;103026.66;5021699;28;20057;-35
2023/03/01 10:53:40;;;;;;;2.40;1.70;;;;;;;18.29;43.76;103021.84;5025626;28;20049;-35
2023/03/01 10:56:08;;;;;;;;;;;;;;;18.31;44.17;103012.72;5022663;28;20055;-35
2023/03/01 10:58:38;;;;;;;3.17;1.48;;;;;;;18.37;43.78;103004.28;5025257;28;19926;-35
2023/03/01 11:01:16;;;;;;;3.30;1.85;;;;;;;18.38;44.16;102999.78;5025310;28;20046;-36
2023/03/01 11:03:43;;;;;;;5.65;2.00;;;;;;;18.41;43.87;102991.47;5028388;28;20413;-35
2023/03/01 11:06:13;;;;;;;4.68;2.08;;;;;;;18.42;43.93;102987.84;5024508;28;20494;-36
2023/03/01 11:08:43;;;;;;;5.10;2.00;;;;;;;18.44;44.00;102988.59;5023743;28;20077;-36
2023/03/01 11:11:28;;;;;;;4.13;1.90;;;;;;;18.44;43.99;102981.41;5021582;28;20077;-35
2023/03/01 11:14:15;;;;;;;10.13;2.42;;;;;;;18.46;43.68;102979.50;5026835;28;20107;-35
2023/03/01 11:17:15;;;;;;;6.10;2.38;;;;;;;18.46;43.81;102975.94;5026924;28;20392;-35
2023/03/01 11:19:41;;;;;;;6.28;2.92;;;;;;;18.47;43.61;102972.28;5023827;28;20057;-35
2023/03/01 11:22:22;;;;;;;5.43;2.05;;;;;;;18.48;43.89;102968.63;5022495;28;20136;-35
2023/03/01 11:24:54;;;;;;;3.58;2.10;;;;;;;18.49;43.56;102963.16;5021960;28;20421;-35
2023/03/01 11:27:40;;;;;;;4.40;2.20;;;;;;;18.50;43.95;102954.16;5023252;28;20484;-35
2023/03/01 11:30:21;;;;;;;6.35;2.00;;;;;;;18.50;43.96;102958.66;5025110;28;20103;-35
2023/03/01 11:33:10;;;;;;;4.03;2.40;;;;;;;18.51;43.85;102955.00;5025139;28;20049;-35
2023/03/01 11:35:53;;;;;;;5.65;2.35;;;;;;;18.52;43.94;102963.91;5028329;28;20046;-35
2023/03/01 11:38:23;;;;;;;3.45;2.15;;;;;;;18.54;43.73;102957.47;5023213;28;20070;-34
2023/03/01 11:40:59;;;;;;;4.97;2.38;;;;;;;18.55;43.83;102944.91;5027505;28;20049;-35